Flight Track Log - Related Links

Times and Time Zones

All times are in EDT time to prevent confusion due to time zone crossing. See the ASH3770 flight status page for this flight to view local times or setup timezone preferences in your user account.

Time Position Orientation Groundspeed Altitude Reporting Facility
EDT Latitude Longitude Course Direction KTS MPH feet Rate Location/Type
Tue 10:12:23 PM 42.0047 -87.8875 61° Northeast 152 175 39,000  Level Chicago Center
Tue 10:13:25 PM 42.0281 -87.8317 61° Northeast 181 208 3,900 -16,098 Descending Chicago Center
Tue 10:14:26 PM 42.0472 -87.7464 73° East 228 262 6,000 2,656 Climbing Chicago Center
Tue 10:15:27 PM 42.0553 -87.6428 84° East 275 316 9,300 2,951 Climbing Chicago Center
Tue 10:16:28 PM 42.0656 -87.5372 82° East 283 326 12,000 2,488 Climbing Chicago Center
Tue 10:17:30 PM 42.0736 -87.4261 84° East 296 341 14,400 1,805 Climbing Chicago Center
Tue 10:18:31 PM 42.0783 -87.2906 87° East 361 415 15,700 1,574 Climbing Chicago Center
Tue 10:19:32 PM 42.0825 -87.1483 88° East 378 435 17,600 2,016 Climbing Chicago Center
Tue 10:20:33 PM 42.0883 -86.9725 87° East 393 452 19,800 1,967 Climbing Chicago Center
Tue 10:21:34 PM 42.0936 -86.8197 87° East 407 468 21,600 1,672 Climbing Chicago Center
Tue 10:22:35 PM 42.0964 -86.6783 88° East 412 474 23,200 1,561 Climbing Chicago Center
Tue 10:23:37 PM 42.1011 -86.5217 88° East 419 482 24,800 1,268 Climbing Chicago Center
Tue 10:24:38 PM 42.1058 -86.3606 88° East 428 493 25,800 1,180 Climbing Chicago Center
Tue 10:25:39 PM 42.1097 -86.1958 88° East 437 503 27,200 1,426 Climbing Chicago Center
Tue 10:26:40 PM 42.1147 -86.0317 88° East 439 505 28,700 1,574 Climbing Chicago Center
Tue 10:27:41 PM 42.1181 -85.8514 89° East 432 497 30,400 1,820 Climbing Chicago Center
Tue 10:28:42 PM 42.1214 -85.6956 88° East 422 486 32,400 1,525 Climbing Chicago Center
Tue 10:29:43 PM 42.1250 -85.5433 88° East 412 474 33,500 1,171 Climbing Chicago Center
Tue 10:30:45 PM 42.1269 -85.3903 89° East 411 473 34,800 1,186 Climbing Chicago Center
Tue 10:31:09 PM 42.1317 -85.3072 86° East 412 474 35,200 929 Climbing Cleveland Center
Tue 10:32:09 PM 42.1336 -85.1533 89° East 412 474 36,100 850 Climbing Cleveland Center
Tue 10:33:09 PM 42.1356 -84.9994 89° East 412 474 36,900 800 Climbing Cleveland Center
Tue 10:34:09 PM 42.1333 -84.8397 91° East 412 474 37,700 700 Climbing Cleveland Center
Tue 10:35:09 PM 42.1283 -84.6881 92° East 412 474 38,300 550 Climbing Cleveland Center
Tue 10:36:09 PM 42.1256 -84.5311 91° East 412 474 38,800 350 Climbing Cleveland Center
Tue 10:37:09 PM 42.1317 -84.4081 86° East 412 474 39,000 100 Climbing Cleveland Center
Tue 10:38:09 PM 42.1478 -84.2383 83° East 412 474 39,000  Level Cleveland Center
Tue 10:39:09 PM 42.1653 -84.0739 82° East 422 486 39,000  Level Cleveland Center
Tue 10:40:09 PM 42.1825 -83.9178 81° East 427 491 39,000  Level Cleveland Center
Tue 10:41:09 PM 42.1994 -83.7617 82° East 427 491 39,000  Level Cleveland Center
Tue 10:42:09 PM 42.2164 -83.6000 82° East 430 495 39,000  Level Cleveland Center
Tue 10:43:09 PM 42.2272 -83.4211 85° East 430 495 39,000  Level Cleveland Center
Tue 10:44:09 PM 42.2289 -83.2639 89° East 423 487 39,000  Level Cleveland Center
Tue 10:45:09 PM 42.2300 -83.1211 89° East 423 487 39,000  Level Cleveland Center
Tue 10:46:09 PM 42.2317 -82.9417 89° East 423 487 39,000  Level Cleveland Center
Tue 10:47:09 PM 42.2328 -82.7844 89° East 423 487 39,000  Level Cleveland Center
Tue 10:48:09 PM 42.2317 -82.6219 90° East 423 487 39,000  Level Cleveland Center
Tue 10:49:09 PM 42.2342 -82.4650 89° East 418 481 39,000  Level Cleveland Center
Tue 10:50:09 PM 42.2325 -82.3050 91° East 418 481 39,000  Level Cleveland Center
Tue 10:51:09 PM 42.2328 -82.1481 90° East 418 481 39,000  Level Cleveland Center
Tue 10:52:09 PM 42.2328 -81.9908 90° East 418 481 39,000  Level Cleveland Center
Tue 10:53:09 PM 42.2325 -81.8311 90° East 423 487 39,000  Level Cleveland Center
Tue 10:54:09 PM 42.2300 -81.6683 91° East 423 487 39,000  Level Cleveland Center
Tue 10:55:09 PM 42.2314 -81.5114 89° East 423 487 39,000  Level Cleveland Center
Tue 10:56:09 PM 42.2306 -81.3486 90° East 423 487 39,000  Level Cleveland Center
Tue 10:57:09 PM 42.2294 -81.1889 90° East 423 487 39,000  Level Cleveland Center
Tue 10:58:09 PM 42.2281 -81.0317 91° East 421 484 39,000  Level Cleveland Center
Tue 10:59:09 PM 42.2242 -80.8917 92° East 421 484 39,000  Level Cleveland Center
Tue 11:00:09 PM 42.2331 -80.7289 86° East 421 484 39,000  Level Cleveland Center
Tue 11:01:09 PM 42.2414 -80.5719 86° East 421 484 39,000  Level Cleveland Center
Tue 11:02:09 PM 42.2517 -80.4119 85° East 421 484 39,000  Level Cleveland Center
Tue 11:03:09 PM 42.2639 -80.2522 84° East 426 490 39,000  Level Cleveland Center
Tue 11:04:09 PM 42.2717 -80.0922 86° East 426 490 39,000  Level Cleveland Center
Tue 11:05:09 PM 42.2833 -79.9347 84° East 426 490 39,000  Level Cleveland Center
Tue 11:06:09 PM 42.2906 -79.7719 87° East 426 490 39,000  Level Cleveland Center
Tue 11:07:09 PM 42.3019 -79.6147 84° East 426 490 39,000  Level Cleveland Center
Tue 11:08:09 PM 42.3108 -79.4517 86° East 426 490 39,000  Level Cleveland Center
Tue 11:09:09 PM 42.3197 -79.2914 86° East 421 484 39,000  Level Cleveland Center
Tue 11:10:09 PM 42.3261 -79.1311 87° East 421 484 39,000  Level Cleveland Center
Tue 11:11:09 PM 42.3364 -78.9736 85° East 421 484 39,000  Level Cleveland Center
Tue 11:12:09 PM 42.3444 -78.8133 86° East 426 490 39,000  Level Cleveland Center
Tue 11:13:09 PM 42.3525 -78.6558 86° East 426 490 39,000 -200 Level Cleveland Center
Tue 11:14:09 PM 42.3600 -78.4981 86° East 426 490 38,600 -700 Descending Cleveland Center
Tue 11:15:09 PM 42.3694 -78.3347 85° East 426 490 37,600 -1,000 Descending Cleveland Center
Tue 11:16:09 PM 42.3747 -78.1772 87° East 426 490 36,600 -1,000 Descending Cleveland Center
Tue 11:17:09 PM 42.3817 -78.0167 87° East 426 490 35,600 -800 Descending Cleveland Center
Tue 11:18:09 PM 42.3883 -77.8533 87° East 426 490 35,000 -194 Descending Cleveland Center
Tue 11:20:15 PM 42.4000 -77.5047 87° East 420 483 35,000  Level Boston Center
Tue 11:21:15 PM 42.4069 -77.3450 87° East 420 483 35,000  Level Boston Center
Tue 11:22:15 PM 42.4117 -77.1850 88° East 420 483 35,000  Level Boston Center
Tue 11:23:15 PM 42.4183 -77.0250 87° East 420 483 35,000  Level Boston Center
Tue 11:24:15 PM 42.4247 -76.8653 87° East 420 483 35,000  Level Boston Center
Tue 11:25:15 PM 42.4289 -76.7022 88° East 420 483 35,000  Level Boston Center
Tue 11:26:15 PM 42.4347 -76.5422 87° East 420 483 35,000  Level Boston Center
Tue 11:27:15 PM 42.4403 -76.3822 87° East 420 483 35,000  Level Boston Center
Tue 11:28:15 PM 42.4433 -76.2331 88° East 420 483 35,000  Level Boston Center
Tue 11:29:15 PM 42.4444 -76.0700 89° East 420 483 35,000 -750 Level Boston Center
Tue 11:30:15 PM 42.4372 -75.9064 93° East 425 489 33,500 -1,450 Descending Boston Center
Tue 11:31:15 PM 42.4297 -75.7342 93° East 432 497 32,100 -1,500 Descending Boston Center
Tue 11:32:15 PM 42.4197 -75.5706 95° East 442 509 30,500 -1,455 Descending Boston Center
Tue 11:33:27 PM 42.4139 -75.4014 93° East 442 509 28,900 -1,591 Descending Boston Center
Tue 11:34:27 PM 42.4042 -75.2097 94° East 437 503 27,000 -1,700 Descending Boston Center
Tue 11:35:27 PM 42.3933 -75.0461 95° East 432 497 25,500 -1,500 Descending Boston Center
Tue 11:36:27 PM 42.3886 -74.8858 92° East 432 497 24,000 -1,500 Descending Boston Center
Tue 11:37:27 PM 42.3794 -74.7225 94° East 432 497 22,500 -1,500 Descending Boston Center
Tue 11:38:27 PM 42.3719 -74.5703 94° East 422 486 21,000 -1,450 Descending Boston Center
Tue 11:39:27 PM 42.3622 -74.4211 95° East 410 472 19,600 -1,450 Descending Boston Center
Tue 11:40:27 PM 42.3506 -74.2436 95° East 415 478 18,100 -1,250 Descending Boston Center
Tue 11:41:27 PM 42.3442 -74.1169 94° East 395 455 17,100 -1,100 Descending Boston Center
Tue 11:42:27 PM 42.3339 -73.9594 95° East 389 448 15,900 -1,100 Descending Boston Center
Tue 11:43:27 PM 42.3250 -73.8358 96° East 382 440 14,900 -1,041 Descending Boston Center
Tue 11:44:05 PM 42.3200 -73.7344 94° East 374 430 14,200 -1,100 Descending Boston Center
Tue 11:44:27 PM 42.3164 -73.6867 96° East 372 428 13,800 -1,000 Descending Boston Center
Tue 11:44:59 PM 42.3089 -73.6136 98° East 363 418 13,300 -1,000 Descending Boston Center
Tue 11:45:27 PM 42.3075 -73.5544 92° East 360 414 12,800 -984 Descending Boston Center
Tue 11:46:00 PM 42.2997 -73.4814 98° East 357 411 12,300 -1,000 Descending Boston Center
Tue 11:46:27 PM 42.2983 -73.4225 92° East 355 409 11,800 -1,000 Descending Boston Center
Tue 11:47:00 PM 42.2925 -73.3467 96° East 354 407 11,300 -800 Descending Boston Center
Tue 11:47:27 PM 42.2889 -73.3017 96° East 350 403 11,000 -295 Descending Boston Center
Tue 11:48:01 PM 42.2728 -73.2228 105° East 339 390 11,000  Level Boston Center
Tue 11:48:27 PM 42.2667 -73.1667 98° East 344 396 11,000  Level Boston Center
Tue 11:48:55 PM 42.2525 -73.1106 109° East 338 389 11,000 -300 Level Boston Center
Tue 11:49:27 PM 42.2444 -73.0569 101° East 337 388 10,700 -787 Descending Boston Center
Tue 11:49:56 PM 42.2322 -72.9953 105° East 316 364 10,200 -1,200 Descending Boston Center
Tue 11:50:27 PM 42.2242 -72.9392 101° East 309 356 9,500 -1,377 Descending Boston Center
Tue 11:50:57 PM 42.2139 -72.8942 107° East 269 310 8,800 -1,500 Descending Boston Center
Tue 11:51:27 PM 42.2100 -72.8550 98° East 268 308 8,000 -1,700 Descending Boston Center
Tue 11:51:57 PM 42.1978 -72.8017 107° East 258 297 7,100 -1,700 Descending Boston Center
Tue 11:52:27 PM 42.1917 -72.7539 100° East 246 283 6,300 -1,418 Descending Boston Center
Tue 11:52:52 PM 42.1853 -72.7203 104° East 244 281 5,800 -1,200 Descending Boston Center
Tue 11:53:27 PM 42.1731 -72.6725 109° East 228 262 5,100 -1,300 Descending Boston Center
Tue 11:53:52 PM 42.1583 -72.6531 136° Southeast 210 242 4,500 -1,400 Descending Boston Center
Tue 11:54:27 PM 42.1419 -72.6219 125° Southeast 199 229 3,700 -1,377 Descending Boston Center
Tue 11:54:53 PM 42.1253 -72.5942 129° Southeast 177 204 3,100 -1,200 Descending Boston Center
Tue 11:55:27 PM 42.1086 -72.5744 139° Southeast 173 199 2,500 -873 Descending Boston Center
Tue 11:55:48 PM 42.0897 -72.5717 174° South 163 188 2,300 -400 Descending Boston Center
Tue 11:56:27 PM 42.0669 -72.5714 179° South 158 182 2,100 -200 Descending Boston Center
Tue 11:56:48 PM 42.0461 -72.5742 186° South 163 188 2,100  Level Boston Center
Tue 11:57:27 PM 42.0211 -72.5853 198° South 158 182 2,100  Level Boston Center
Tue 11:57:43 PM 42.0086 -72.5939 207° Southwest 154 177 2,100 -300 Level Boston Center
Tue 11:58:27 PM 41.9917 -72.6189 228° Southwest 149 171 1,800 -600 Descending Boston Center
Tue 11:58:43 PM 41.9856 -72.6272 225° Southwest 127 146 1,500 -935 Descending Boston Center
Tue 11:59:44 PM 41.9583 -72.6606 222° Southwest 124 143 600 -885 Descending Boston Center

Login

Don't have an account? Register now (free) for customized features, flight alerts, and more!